createdAt,value
2018-06-23T00:00:44.698Z,2.58
2018-06-23T00:03:13.645Z,2.15
2018-06-23T00:05:42.635Z,2.70
2018-06-23T00:08:11.601Z,1.92
2018-06-23T00:10:40.505Z,2.37
2018-06-23T00:13:09.107Z,2.30
2018-06-23T00:15:38.054Z,2.22
2018-06-23T00:18:06.994Z,2.77
2018-06-23T00:20:36.538Z,2.35
2018-06-23T00:23:05.443Z,1.92
2018-06-23T00:25:39.540Z,2.55
2018-06-23T00:28:08.458Z,2.27
2018-06-23T00:30:37.421Z,2.20
2018-06-23T00:33:06.349Z,2.12
2018-06-23T00:35:35.319Z,2.50
2018-06-23T00:38:04.231Z,2.60
2018-06-23T00:40:33.280Z,2.12
2018-06-23T00:43:02.211Z,2.35
2018-06-23T00:45:31.158Z,2.22
2018-06-23T00:48:00.072Z,2.30
2018-06-23T00:50:28.981Z,2.42
2018-06-23T00:52:59.584Z,2.60
2018-06-23T00:55:28.686Z,2.08
2018-06-23T00:57:57.646Z,1.90
2018-06-23T01:00:26.600Z,2.92
2018-06-23T01:02:55.615Z,2.30
2018-06-23T01:05:24.557Z,2.45
2018-06-23T01:07:53.551Z,2.40
2018-06-23T01:10:22.438Z,3.60
2018-06-23T01:12:51.460Z,2.62
2018-06-23T01:15:20.414Z,3.10
2018-06-23T01:17:49.393Z,2.58
2018-06-23T01:20:18.346Z,2.55
2018-06-23T01:22:47.735Z,2.50
2018-06-23T01:25:16.652Z,3.05
2018-06-23T01:27:46.620Z,2.47
2018-06-23T01:30:15.546Z,2.40
2018-06-23T01:32:44.444Z,2.58
2018-06-23T01:35:13.373Z,2.40
2018-06-23T01:37:42.264Z,2.60
2018-06-23T01:40:11.200Z,2.33
2018-06-23T01:42:40.106Z,2.83
2018-06-23T01:45:09.057Z,3.08
2018-06-23T01:47:37.972Z,2.30
2018-06-23T01:50:06.966Z,3.67
2018-06-23T01:52:35.950Z,2.70
2018-06-23T01:55:04.903Z,2.52
2018-06-23T01:57:34.339Z,3.35
2018-06-23T02:00:03.235Z,3.00
2018-06-23T02:02:32.205Z,2.90
2018-06-23T02:05:01.101Z,2.72
2018-06-23T02:07:30.487Z,3.08
2018-06-23T02:09:59.463Z,2.92
2018-06-23T02:12:28.462Z,2.90
2018-06-23T02:15:02.680Z,2.50
2018-06-23T02:17:36.859Z,2.90
2018-06-23T02:21:13.811Z,2.98
2018-06-23T02:23:47.982Z,3.50
2018-06-23T02:26:22.178Z,3.05
2018-06-23T02:28:56.607Z,4.75
2018-06-23T02:31:30.755Z,3.25
2018-06-23T02:34:04.928Z,3.22
2018-06-23T02:36:34.437Z,3.35
2018-06-23T02:39:04.844Z,2.75
2018-06-23T02:41:33.861Z,3.65
2018-06-23T02:44:03.221Z,2.40
2018-06-23T02:46:32.727Z,2.52
2018-06-23T02:49:01.647Z,2.60
2018-06-23T02:51:30.720Z,3.33
2018-06-23T02:53:59.631Z,2.72
2018-06-23T02:56:28.634Z,2.80
2018-06-23T02:58:57.539Z,2.75
2018-06-23T03:01:26.565Z,2.52
2018-06-23T03:03:55.478Z,3.12
2018-06-23T03:06:24.375Z,2.72
2018-06-23T03:08:53.311Z,2.60
2018-06-23T03:11:22.183Z,2.65
2018-06-23T03:13:51.116Z,2.60
2018-06-23T03:16:20.040Z,3.77
2018-06-23T03:18:48.963Z,3.12
2018-06-23T03:21:18.371Z,2.15
2018-06-23T03:23:46.894Z,2.60
2018-06-23T03:26:15.873Z,2.35
2018-06-23T03:28:44.824Z,2.45
2018-06-23T03:31:13.745Z,2.17
2018-06-23T03:33:42.661Z,2.90
2018-06-23T03:36:11.591Z,2.80
2018-06-23T03:38:40.469Z,2.05
2018-06-23T03:41:09.406Z,1.90
2018-06-23T03:43:38.955Z,2.20
2018-06-23T03:46:08.558Z,2.10
2018-06-23T03:48:37.548Z,2.47
2018-06-23T03:51:06.538Z,2.12
2018-06-23T03:53:35.471Z,1.80
2018-06-23T03:56:04.515Z,2.00
2018-06-23T03:58:33.503Z,1.75
2018-06-23T04:01:08.325Z,2.02
2018-06-23T04:03:38.471Z,2.05
2018-06-23T04:06:07.381Z,2.17
2018-06-23T04:08:36.907Z,2.20
2018-06-23T04:11:05.900Z,2.42
2018-06-23T04:13:35.445Z,2.67
2018-06-23T04:16:04.384Z,2.95
2018-06-23T04:18:33.314Z,2.75
2018-06-23T04:21:02.249Z,2.60
2018-06-23T04:23:30.802Z,2.55
2018-06-23T04:25:59.694Z,2.60
2018-06-23T04:28:28.687Z,2.20
2018-06-23T04:30:57.650Z,2.77
2018-06-23T04:33:26.547Z,2.10
2018-06-23T04:35:55.504Z,3.12
2018-06-23T04:38:24.413Z,2.27
2018-06-23T04:40:53.330Z,3.00
2018-06-23T04:43:22.223Z,4.33
2018-06-23T04:45:51.186Z,3.80
2018-06-23T04:48:20.121Z,2.98
2018-06-23T04:50:49.047Z,3.20
2018-06-23T04:53:17.948Z,2.70
2018-06-23T04:55:48.298Z,4.00
2018-06-23T04:58:17.179Z,3.08
2018-06-23T05:00:46.742Z,3.72
2018-06-23T05:03:15.662Z,4.95
2018-06-23T05:05:44.763Z,3.62
2018-06-23T05:08:13.799Z,3.40
2018-06-23T05:10:42.714Z,3.55
2018-06-23T05:13:11.627Z,3.20
2018-06-23T05:15:40.993Z,3.10
2018-06-23T05:18:09.924Z,3.62
2018-06-23T05:20:38.811Z,3.95
2018-06-23T05:23:08.253Z,4.10
2018-06-23T05:25:37.155Z,3.45
2018-06-23T05:28:06.177Z,3.33
2018-06-23T05:30:35.054Z,3.33
2018-06-23T05:33:04.008Z,4.00
2018-06-23T05:35:32.935Z,3.83
2018-06-23T05:38:01.826Z,3.35
2018-06-23T05:40:30.782Z,4.08
2018-06-23T05:42:59.708Z,3.70
2018-06-23T05:45:28.703Z,3.72
2018-06-23T05:47:57.596Z,3.60
2018-06-23T05:50:26.507Z,3.17
2018-06-23T05:52:55.482Z,3.37
2018-06-23T05:55:24.394Z,3.52
2018-06-23T05:57:52.870Z,3.45
2018-06-23T06:00:21.783Z,3.20
2018-06-23T06:02:50.736Z,3.40
2018-06-23T06:05:19.632Z,3.92
2018-06-23T06:07:49.013Z,3.40
2018-06-23T06:10:18.006Z,3.45
2018-06-23T06:12:46.925Z,2.77
2018-06-23T06:15:15.483Z,3.15
2018-06-23T06:17:44.474Z,3.75
2018-06-23T06:20:15.631Z,3.20
2018-06-23T06:22:45.725Z,3.20
2018-06-23T06:25:15.251Z,3.50
2018-06-23T06:27:44.215Z,3.52
2018-06-23T06:30:13.305Z,2.80
2018-06-23T06:32:42.252Z,2.67
2018-06-23T06:35:11.610Z,3.05
2018-06-23T06:37:40.584Z,3.60
2018-06-23T06:40:09.594Z,3.02
2018-06-23T06:42:38.461Z,4.47
2018-06-23T06:45:07.785Z,3.15
2018-06-23T06:47:36.301Z,3.17
2018-06-23T06:50:05.869Z,3.30
2018-06-23T06:52:34.798Z,3.08
2018-06-23T06:55:03.859Z,4.78
2018-06-23T06:57:33.222Z,3.47
2018-06-23T07:00:02.192Z,3.67
2018-06-23T07:02:31.331Z,3.27
2018-06-23T07:05:01.093Z,3.52
2018-06-23T07:07:30.095Z,3.77
2018-06-23T07:09:59.248Z,3.30
2018-06-23T07:12:28.777Z,3.17
2018-06-23T07:14:57.980Z,3.50
2018-06-23T07:17:27.233Z,3.08
2018-06-23T07:19:56.170Z,3.40
2018-06-23T07:22:25.155Z,3.45
2018-06-23T07:24:54.480Z,2.77
2018-06-23T07:27:24.451Z,4.47
2018-06-23T07:29:53.614Z,3.40
2018-06-23T07:32:22.530Z,3.17
2018-06-23T07:34:51.783Z,2.50
2018-06-23T07:37:20.614Z,3.00
2018-06-23T07:39:50.291Z,3.65
2018-06-23T07:42:19.442Z,2.10
2018-06-23T07:44:48.374Z,3.25
2018-06-23T07:47:17.306Z,2.52
2018-06-23T07:49:46.220Z,2.50
2018-06-23T07:52:15.208Z,3.27
2018-06-23T07:54:44.135Z,2.42
2018-06-23T07:57:13.072Z,2.33
2018-06-23T07:59:42.498Z,1.90
2018-06-23T08:02:11.431Z,2.33
2018-06-23T08:04:40.362Z,2.40
2018-06-23T08:07:09.294Z,2.87
2018-06-23T08:09:38.219Z,2.95
2018-06-23T08:12:07.151Z,1.98
2018-06-23T08:14:36.531Z,3.17
2018-06-23T08:17:05.494Z,2.72
2018-06-23T08:19:34.474Z,2.05
2018-06-23T08:22:03.420Z,1.90
2018-06-23T08:24:32.355Z,2.35
2018-06-23T08:27:01.300Z,2.95
2018-06-23T08:29:30.705Z,2.55
2018-06-23T08:31:59.705Z,2.67
2018-06-23T08:34:28.712Z,2.83
2018-06-23T08:36:57.693Z,2.47
2018-06-23T08:39:26.646Z,3.22
2018-06-23T08:41:55.702Z,2.58
2018-06-23T08:44:24.704Z,2.25
2018-06-23T08:46:53.620Z,1.95
2018-06-23T08:49:35.360Z,1.80
2018-06-23T08:52:10.001Z,2.65
2018-06-23T08:54:46.944Z,2.15
2018-06-23T08:57:27.532Z,2.00
2018-06-23T09:00:06.036Z,1.90
2018-06-23T09:02:35.718Z,1.87
2018-06-23T09:05:04.816Z,1.70
2018-06-23T09:07:33.747Z,1.90
2018-06-23T09:10:02.693Z,1.77
2018-06-23T09:12:31.801Z,1.90
2018-06-23T09:15:00.735Z,1.70
2018-06-23T09:17:29.687Z,2.30
2018-06-23T09:19:58.629Z,3.12
2018-06-23T09:22:27.640Z,2.05
2018-06-23T09:24:56.980Z,2.25
2018-06-23T09:27:25.947Z,2.45
2018-06-23T09:29:54.872Z,2.08
2018-06-23T09:32:23.835Z,2.20
2018-06-23T09:34:52.735Z,2.08
2018-06-23T09:37:21.711Z,2.58
2018-06-23T09:39:52.120Z,1.87
2018-06-23T09:42:21.045Z,2.00
2018-06-23T09:44:50.308Z,2.37
2018-06-23T09:47:19.692Z,2.00
2018-06-23T09:49:48.651Z,2.75
2018-06-23T09:52:17.599Z,2.00
2018-06-23T09:54:46.567Z,2.45
2018-06-23T09:57:15.524Z,2.10
2018-06-23T09:59:44.626Z,2.60
2018-06-23T10:02:14.093Z,1.72
2018-06-23T10:04:43.110Z,2.50
2018-06-23T10:07:12.194Z,3.42
2018-06-23T10:09:41.104Z,3.12
2018-06-23T10:12:10.068Z,3.25
2018-06-23T10:14:38.977Z,2.60
2018-06-23T10:17:07.939Z,2.45
2018-06-23T10:19:36.875Z,2.58
2018-06-23T10:22:05.933Z,2.80
2018-06-23T10:24:34.877Z,2.30
2018-06-23T10:27:03.915Z,2.35
2018-06-23T10:29:32.832Z,2.70
2018-06-23T10:32:02.164Z,2.87
2018-06-23T10:34:31.283Z,2.37
2018-06-23T10:37:00.263Z,2.77
2018-06-23T10:39:29.210Z,2.50
2018-06-23T10:41:58.165Z,2.27
2018-06-23T10:44:27.125Z,2.20
2018-06-23T10:46:55.676Z,3.08
2018-06-23T10:49:24.603Z,3.02
2018-06-23T10:51:53.522Z,2.80
2018-06-23T10:54:22.922Z,2.70
2018-06-23T10:56:51.863Z,4.35
2018-06-23T10:59:20.794Z,2.70
2018-06-23T11:01:49.753Z,2.92
2018-06-23T11:04:18.744Z,2.70
2018-06-23T11:06:47.651Z,3.02
2018-06-23T11:09:16.668Z,3.37
2018-06-23T11:11:45.614Z,3.15
2018-06-23T11:14:15.480Z,2.47
2018-06-23T11:16:45.032Z,3.30
2018-06-23T11:19:13.935Z,2.58
2018-06-23T11:21:42.891Z,3.00
2018-06-23T11:24:11.918Z,3.62
2018-06-23T11:26:40.851Z,3.52
2018-06-23T11:29:09.772Z,3.55
2018-06-23T11:31:38.703Z,2.60
2018-06-23T11:34:07.646Z,2.47
2018-06-23T11:36:36.635Z,2.75
2018-06-23T11:39:08.660Z,2.25
2018-06-23T11:41:37.634Z,3.25
2018-06-23T11:44:06.548Z,2.35
2018-06-23T11:46:35.515Z,3.08
2018-06-23T11:49:04.594Z,2.40
2018-06-23T11:51:33.515Z,2.72
2018-06-23T11:54:02.480Z,2.55
2018-06-23T11:56:31.435Z,4.20
2018-06-23T11:59:00.418Z,2.65
2018-06-23T12:01:29.565Z,1.98
2018-06-23T12:03:58.516Z,1.92
2018-06-23T12:06:27.560Z,2.35
2018-06-23T12:08:56.692Z,2.60
2018-06-23T12:11:25.683Z,1.80
2018-06-23T12:13:54.600Z,2.95
2018-06-23T12:16:23.669Z,2.25
2018-06-23T12:18:52.607Z,1.87
2018-06-23T12:21:22.124Z,2.20
2018-06-23T12:23:51.531Z,2.90
2018-06-23T12:26:20.530Z,2.72
2018-06-23T12:28:49.469Z,1.70
2018-06-23T12:31:18.474Z,2.15
2018-06-23T12:33:47.374Z,1.95
2018-06-23T12:36:16.409Z,1.98
2018-06-23T12:38:45.388Z,2.30
2018-06-23T12:41:14.327Z,2.35
2018-06-23T12:43:43.358Z,2.30
2018-06-23T12:46:12.265Z,2.10
2018-06-23T12:48:41.240Z,2.92
2018-06-23T12:51:09.819Z,2.00
2018-06-23T12:53:38.747Z,2.12
2018-06-23T12:56:07.721Z,2.00
2018-06-23T12:58:36.976Z,2.45
2018-06-23T13:01:06.036Z,1.98
2018-06-23T13:03:35.030Z,1.70
2018-06-23T13:06:04.085Z,1.87
2018-06-23T13:08:56.517Z,2.08
2018-06-23T13:11:25.435Z,1.82
2018-06-23T13:13:54.758Z,1.50
2018-06-23T13:16:24.031Z,1.60
2018-06-23T13:18:53.015Z,2.00
2018-06-23T13:21:22.008Z,1.82
2018-06-23T13:23:51.003Z,2.20
2018-06-23T13:26:19.963Z,1.50
2018-06-23T13:28:48.963Z,2.40
2018-06-23T13:31:17.927Z,2.40
2018-06-23T13:33:47.135Z,2.47
2018-06-23T13:36:16.140Z,2.55
2018-06-23T13:38:45.068Z,3.35
2018-06-23T13:41:14.039Z,2.50
2018-06-23T13:43:43.031Z,2.98
2018-06-23T13:46:13.525Z,3.42
2018-06-23T13:48:43.237Z,3.33
2018-06-23T13:51:12.307Z,2.37
2018-06-23T13:53:41.259Z,2.20
2018-06-23T13:56:10.217Z,2.37
2018-06-23T13:58:39.227Z,2.65
2018-06-23T14:01:08.231Z,2.65
2018-06-23T14:03:37.197Z,1.95
2018-06-23T14:06:06.239Z,2.20
2018-06-23T14:08:35.263Z,2.50
2018-06-23T14:11:03.821Z,2.17
2018-06-23T14:13:32.821Z,2.00
2018-06-23T14:16:01.760Z,1.80
2018-06-23T14:18:30.801Z,2.10
2018-06-23T14:20:59.776Z,1.37
2018-06-23T14:23:28.952Z,1.77
2018-06-23T14:25:57.911Z,2.27
2018-06-23T14:28:26.848Z,1.90
2018-06-23T14:30:55.844Z,1.75
2018-06-23T14:33:24.772Z,2.10
2018-06-23T14:35:53.786Z,1.77
2018-06-23T14:38:23.195Z,1.67
2018-06-23T14:40:52.209Z,1.75
2018-06-23T14:43:21.171Z,2.40
2018-06-23T14:45:50.375Z,1.90
2018-06-23T14:48:19.356Z,2.08
2018-06-23T14:50:48.267Z,2.30
2018-06-23T14:53:17.196Z,2.33
2018-06-23T14:55:45.843Z,1.32
2018-06-23T14:58:15.608Z,3.27
2018-06-23T15:00:44.512Z,2.50
2018-06-23T15:03:13.461Z,2.22
2018-06-23T15:05:42.684Z,2.42
2018-06-23T15:08:22.860Z,2.30
2018-06-23T15:11:02.902Z,1.60
2018-06-23T15:13:32.006Z,1.45
2018-06-23T15:16:00.933Z,1.80
2018-06-23T15:18:29.910Z,1.55
2018-06-23T15:20:58.507Z,2.40
2018-06-23T15:23:27.428Z,1.72
2018-06-23T15:25:56.379Z,2.30
2018-06-23T15:28:25.338Z,2.30
2018-06-23T15:30:54.297Z,2.40
2018-06-23T15:33:23.425Z,2.08
2018-06-23T15:35:53.021Z,2.65
2018-06-23T15:38:22.015Z,2.10
2018-06-23T15:40:51.137Z,1.90
2018-06-23T15:43:20.109Z,1.60
2018-06-23T15:45:49.393Z,1.82
2018-06-23T15:48:18.306Z,1.82
2018-06-23T15:50:47.252Z,2.27
2018-06-23T15:53:16.343Z,2.72
2018-06-23T15:55:45.235Z,2.00
2018-06-23T15:58:14.284Z,2.10
2018-06-23T16:00:43.223Z,2.47
2018-06-23T16:03:12.168Z,3.20
2018-06-23T16:05:41.133Z,3.17
2018-06-23T16:08:10.354Z,3.37
2018-06-23T16:10:39.761Z,2.60
2018-06-23T16:13:09.336Z,4.37
2018-06-23T16:15:38.331Z,2.25
2018-06-23T16:18:07.314Z,2.45
2018-06-23T16:20:36.271Z,2.27
2018-06-23T16:23:05.276Z,1.55
2018-06-23T16:25:34.599Z,1.70
2018-06-23T16:28:14.822Z,2.20
2018-06-23T16:30:43.825Z,1.92
2018-06-23T16:33:12.843Z,2.05
2018-06-23T16:35:41.846Z,2.20
2018-06-23T16:38:10.408Z,4.00
2018-06-23T16:40:39.426Z,1.65
2018-06-23T16:43:08.613Z,1.75
2018-06-23T16:45:37.145Z,1.50
2018-06-23T16:48:06.133Z,1.77
2018-06-23T16:50:35.084Z,1.40
2018-06-23T16:53:04.123Z,1.35
2018-06-23T16:55:33.482Z,2.05
2018-06-23T16:58:02.478Z,1.52
2018-06-23T17:00:31.479Z,2.37
2018-06-23T17:03:00.555Z,1.62
2018-06-23T17:05:29.208Z,2.25
2018-06-23T17:07:58.243Z,1.70
2018-06-23T17:10:27.214Z,1.67
2018-06-23T17:12:56.798Z,1.85
2018-06-23T17:15:25.735Z,2.75
2018-06-23T17:17:54.672Z,1.70
2018-06-23T17:20:23.609Z,2.27
2018-06-23T17:22:52.552Z,1.72
2018-06-23T17:25:21.588Z,1.90
2018-06-23T17:27:50.537Z,2.15
2018-06-23T17:30:19.519Z,2.72
2018-06-23T17:32:48.605Z,1.85
2018-06-23T17:35:17.564Z,1.98
2018-06-23T17:37:46.487Z,2.17
2018-06-23T17:40:15.567Z,2.50
2018-06-23T17:42:44.535Z,2.35
2018-06-23T17:45:13.476Z,2.65
2018-06-23T17:47:42.511Z,2.35
2018-06-23T17:50:12.056Z,2.60
2018-06-23T17:52:41.017Z,2.25
2018-06-23T17:55:09.958Z,2.55
2018-06-23T17:57:38.987Z,1.80
2018-06-23T18:00:08.567Z,2.30
2018-06-23T18:02:37.768Z,2.83
2018-06-23T18:05:07.610Z,2.45
2018-06-23T18:07:37.267Z,1.90
2018-06-23T18:10:06.263Z,2.37
2018-06-23T18:12:35.257Z,2.25
2018-06-23T18:15:04.312Z,2.22
2018-06-23T18:17:33.305Z,2.30
2018-06-23T18:20:02.215Z,2.70
2018-06-23T18:22:31.252Z,2.83
2018-06-23T18:25:00.176Z,3.05
2018-06-23T18:27:29.147Z,2.12
2018-06-23T18:29:58.647Z,2.95
2018-06-23T18:32:27.605Z,2.83
2018-06-23T18:34:56.564Z,2.62
2018-06-23T18:37:26.019Z,3.12
2018-06-23T18:39:55.471Z,3.05
2018-06-23T18:42:24.915Z,3.17
2018-06-23T18:44:53.920Z,2.45
2018-06-23T18:47:22.830Z,3.02
2018-06-23T18:49:51.791Z,2.62
2018-06-23T18:52:20.739Z,3.20
2018-06-23T18:54:49.690Z,2.60
2018-06-23T18:57:18.663Z,3.30
2018-06-23T18:59:47.619Z,2.55
2018-06-23T19:02:17.748Z,2.62
2018-06-23T19:04:46.682Z,3.62
2018-06-23T19:07:15.901Z,3.15
2018-06-23T19:09:44.901Z,3.00
2018-06-23T19:12:14.005Z,2.65
2018-06-23T19:14:43.199Z,2.80
2018-06-23T19:17:12.291Z,3.20
2018-06-23T19:19:41.372Z,3.20
2018-06-23T19:22:10.499Z,2.87
2018-06-23T19:24:39.572Z,2.85
2018-06-23T19:27:09.219Z,2.22
2018-06-23T19:29:39.400Z,2.35
2018-06-23T19:32:08.535Z,2.45
2018-06-23T19:34:41.367Z,2.85
2018-06-23T19:37:10.488Z,2.55
2018-06-23T19:39:39.596Z,2.00
2018-06-23T19:42:08.737Z,3.52
2018-06-23T19:44:37.882Z,2.62
2018-06-23T19:47:07.055Z,2.47
2018-06-23T19:49:36.236Z,2.37
2018-06-23T19:52:05.464Z,2.45
2018-06-23T19:54:34.801Z,3.10
2018-06-23T19:57:04.604Z,2.22
2018-06-23T19:59:33.688Z,1.95
2018-06-23T20:02:03.221Z,2.20
2018-06-23T20:04:32.286Z,2.20
2018-06-23T20:07:01.482Z,2.75
2018-06-23T20:09:30.686Z,2.50
2018-06-23T20:11:59.828Z,2.35
2018-06-23T20:14:28.801Z,2.70
2018-06-23T20:16:58.020Z,2.25
2018-06-23T20:19:26.975Z,2.35
2018-06-23T20:21:56.140Z,2.40
2018-06-23T20:24:25.111Z,3.98
2018-06-23T20:26:54.036Z,2.30
2018-06-23T20:29:22.988Z,2.20
2018-06-23T20:31:52.004Z,2.15
2018-06-23T20:34:20.983Z,2.35
2018-06-23T20:36:49.924Z,2.12
2018-06-23T20:39:19.283Z,1.87
2018-06-23T20:41:48.215Z,2.05
2018-06-23T20:44:17.240Z,2.70
2018-06-23T20:46:46.349Z,2.52
2018-06-23T20:49:15.276Z,2.30
2018-06-23T20:51:44.826Z,2.10
2018-06-23T20:54:14.270Z,2.02
2018-06-23T20:56:43.278Z,1.87
2018-06-23T20:59:12.242Z,2.00
2018-06-23T21:01:41.468Z,1.60
2018-06-23T21:04:10.811Z,1.75
2018-06-23T21:06:39.798Z,1.95
2018-06-23T21:09:10.358Z,2.72
2018-06-23T21:11:39.772Z,2.25
2018-06-23T21:14:08.823Z,2.15
2018-06-23T21:16:38.235Z,2.65
2018-06-23T21:19:07.202Z,2.05
2018-06-23T21:21:36.139Z,3.20
2018-06-23T21:24:05.208Z,3.12
2018-06-23T21:26:34.277Z,3.05
2018-06-23T21:29:03.315Z,2.65
2018-06-23T21:31:32.862Z,3.42
2018-06-23T21:34:01.832Z,3.98
2018-06-23T21:36:30.863Z,3.52
2018-06-23T21:38:59.846Z,3.60
2018-06-23T21:41:28.818Z,4.28
2018-06-23T21:43:57.776Z,4.50
2018-06-23T21:46:26.741Z,5.62
2018-06-23T21:48:55.736Z,4.80
2018-06-23T21:51:24.682Z,4.72
2018-06-23T21:53:53.578Z,5.58
2018-06-23T21:56:22.540Z,5.92
2018-06-23T21:58:51.652Z,6.53
2018-06-23T22:01:21.295Z,6.78
2018-06-23T22:03:50.270Z,6.25
2018-06-23T22:06:19.249Z,7.58
2018-06-23T22:08:48.228Z,6.65
2018-06-23T22:11:17.232Z,7.40
2018-06-23T22:13:46.206Z,7.90
2018-06-23T22:16:15.135Z,6.70
2018-06-23T22:18:44.090Z,7.70
2018-06-23T22:21:13.045Z,7.60
2018-06-23T22:23:42.026Z,6.65
2018-06-23T22:26:10.980Z,7.42
2018-06-23T22:28:39.936Z,7.80
2018-06-23T22:31:08.869Z,7.05
2018-06-23T22:33:37.816Z,8.70
2018-06-23T22:36:06.828Z,7.30
2018-06-23T22:38:35.951Z,7.20
2018-06-23T22:41:04.894Z,8.23
2018-06-23T22:43:33.826Z,8.00
2018-06-23T22:46:02.775Z,7.45
2018-06-23T22:48:31.781Z,7.85
2018-06-23T22:51:00.782Z,7.55
2018-06-23T22:53:29.868Z,8.48
2018-06-23T22:55:58.826Z,8.23
2018-06-23T22:58:27.751Z,8.30
2018-06-23T23:00:57.602Z,8.10
2018-06-23T23:03:26.599Z,7.55
2018-06-23T23:05:56.774Z,8.58
2018-06-23T23:08:25.714Z,7.50
2018-06-23T23:10:54.772Z,7.85
2018-06-23T23:13:23.715Z,8.08
2018-06-23T23:15:52.631Z,7.97
2018-06-23T23:18:22.136Z,7.80
2018-06-23T23:20:51.061Z,8.75
2018-06-23T23:23:19.995Z,7.30
2018-06-23T23:25:48.891Z,7.62
2018-06-23T23:28:18.046Z,8.03
2018-06-23T23:30:46.967Z,8.03
2018-06-23T23:33:15.917Z,7.17
2018-06-23T23:35:44.827Z,6.50
2018-06-23T23:38:13.861Z,7.42
2018-06-23T23:40:42.767Z,7.70
2018-06-23T23:43:11.725Z,6.70
2018-06-23T23:45:43.310Z,7.10
2018-06-23T23:48:12.618Z,5.78
2018-06-23T23:50:41.575Z,5.58
2018-06-23T23:53:11.718Z,5.12
2018-06-23T23:55:41.174Z,6.90
2018-06-23T23:58:10.747Z,6.90
